sensor_id;sensor_type;location;lat;lon;timestamp;temperature;humidity
9977;DHT22;5029;47.378;11.776;2023-04-10T00:04:56;1.10;99.90
9977;DHT22;5029;47.378;11.776;2023-04-10T00:09:59;0.50;99.90
9977;DHT22;5029;47.378;11.776;2023-04-10T00:15:03;0.60;99.90
9977;DHT22;5029;47.378;11.776;2023-04-10T00:20:09;0.20;99.90
9977;DHT22;5029;47.378;11.776;2023-04-10T00:25:12;0.30;99.90
9977;DHT22;5029;47.378;11.776;2023-04-10T00:30:15;0.30;99.90
9977;DHT22;5029;47.378;11.776;2023-04-10T00:35:20;0.50;99.90
9977;DHT22;5029;47.378;11.776;2023-04-10T00:40:23;0.70;99.90
9977;DHT22;5029;47.378;11.776;2023-04-10T00:45:26;0.50;99.90
9977;DHT22;5029;47.378;11.776;2023-04-10T00:50:31;0.60;99.90
9977;DHT22;5029;47.378;11.776;2023-04-10T00:55:35;0.70;99.90
9977;DHT22;5029;47.378;11.776;2023-04-10T01:00:38;0.90;99.90
9977;DHT22;5029;47.378;11.776;2023-04-10T01:05:50;0.80;99.90
9977;DHT22;5029;47.378;11.776;2023-04-10T01:10:59;0.60;99.90
9977;DHT22;5029;47.378;11.776;2023-04-10T01:16:06;0.40;99.90
9977;DHT22;5029;47.378;11.776;2023-04-10T01:21:14;0.70;99.90
9977;DHT22;5029;47.378;11.776;2023-04-10T01:26:27;0.70;99.90
9977;DHT22;5029;47.378;11.776;2023-04-10T01:31:41;0.10;99.90
9977;DHT22;5029;47.378;11.776;2023-04-10T01:36:48;0.50;99.90
9977;DHT22;5029;47.378;11.776;2023-04-10T01:41:53;0.60;99.90
9977;DHT22;5029;47.378;11.776;2023-04-10T01:47:00;0.20;99.90
9977;DHT22;5029;47.378;11.776;2023-04-10T01:52:05;-0.30;99.90
9977;DHT22;5029;47.378;11.776;2023-04-10T01:57:09;-0.30;99.90
9977;DHT22;5029;47.378;11.776;2023-04-10T02:02:16;0.30;99.90
9977;DHT22;5029;47.378;11.776;2023-04-10T02:07:23;0.50;99.90
9977;DHT22;5029;47.378;11.776;2023-04-10T02:12:30;0.00;99.90
9977;DHT22;5029;47.378;11.776;2023-04-10T02:17:40;-0.70;99.90
9977;DHT22;5029;47.378;11.776;2023-04-10T02:22:44;-0.50;99.90
9977;DHT22;5029;47.378;11.776;2023-04-10T02:27:47;-0.10;99.90
9977;DHT22;5029;47.378;11.776;2023-04-10T02:32:52;-0.10;99.90
9977;DHT22;5029;47.378;11.776;2023-04-10T02:37:56;0.00;99.90
9977;DHT22;5029;47.378;11.776;2023-04-10T02:42:59;0.30;99.90
9977;DHT22;5029;47.378;11.776;2023-04-10T02:48:05;-0.10;99.90
9977;DHT22;5029;47.378;11.776;2023-04-10T02:53:09;0.00;99.90
9977;DHT22;5029;47.378;11.776;2023-04-10T02:58:12;-0.50;99.90
9977;DHT22;5029;47.378;11.776;2023-04-10T03:03:18;0.10;99.90
9977;DHT22;5029;47.378;11.776;2023-04-10T03:08:22;0.00;99.90
9977;DHT22;5029;47.378;11.776;2023-04-10T03:13:25;0.00;99.90
9977;DHT22;5029;47.378;11.776;2023-04-10T03:18:29;0.10;99.90
9977;DHT22;5029;47.378;11.776;2023-04-10T03:23:35;0.20;99.90
9977;DHT22;5029;47.378;11.776;2023-04-10T03:28:38;-0.70;99.90
9977;DHT22;5029;47.378;11.776;2023-04-10T03:33:43;-0.30;99.90
9977;DHT22;5029;47.378;11.776;2023-04-10T03:38:47;-0.10;99.90
9977;DHT22;5029;47.378;11.776;2023-04-10T03:43:50;-0.10;99.90
9977;DHT22;5029;47.378;11.776;2023-04-10T03:48:55;-0.70;99.90
9977;DHT22;5029;47.378;11.776;2023-04-10T03:53:58;-0.50;99.90
9977;DHT22;5029;47.378;11.776;2023-04-10T03:59:02;-1.20;99.90
9977;DHT22;5029;47.378;11.776;2023-04-10T04:04:06;-0.80;99.90
9977;DHT22;5029;47.378;11.776;2023-04-10T04:09:10;-0.40;99.90
9977;DHT22;5029;47.378;11.776;2023-04-10T04:14:13;-0.80;99.90
9977;DHT22;5029;47.378;11.776;2023-04-10T04:19:17;-1.10;99.90
9977;DHT22;5029;47.378;11.776;2023-04-10T04:24:21;-1.20;99.90
9977;DHT22;5029;47.378;11.776;2023-04-10T04:29:24;-0.90;99.90
9977;DHT22;5029;47.378;11.776;2023-04-10T04:34:29;-0.90;99.90
9977;DHT22;5029;47.378;11.776;2023-04-10T04:39:32;-1.00;99.90
9977;DHT22;5029;47.378;11.776;2023-04-10T04:44:35;-1.30;99.90
9977;DHT22;5029;47.378;11.776;2023-04-10T04:49:40;-0.80;99.90
9977;DHT22;5029;47.378;11.776;2023-04-10T04:54:43;-1.50;99.90
9977;DHT22;5029;47.378;11.776;2023-04-10T04:59:46;-2.00;99.90
9977;DHT22;5029;47.378;11.776;2023-04-10T05:04:51;-2.00;99.90
9977;DHT22;5029;47.378;11.776;2023-04-10T05:09:54;-1.60;99.90
9977;DHT22;5029;47.378;11.776;2023-04-10T05:14:57;-1.50;99.90
9977;DHT22;5029;47.378;11.776;2023-04-10T05:20:02;-1.30;99.90
9977;DHT22;5029;47.378;11.776;2023-04-10T05:25:06;-1.10;99.90
9977;DHT22;5029;47.378;11.776;2023-04-10T05:30:10;-1.40;99.90
9977;DHT22;5029;47.378;11.776;2023-04-10T05:35:15;-1.30;99.90
9977;DHT22;5029;47.378;11.776;2023-04-10T05:40:19;-1.00;99.90
9977;DHT22;5029;47.378;11.776;2023-04-10T05:45:22;-1.30;99.90
9977;DHT22;5029;47.378;11.776;2023-04-10T05:50:27;-1.40;99.90
9977;DHT22;5029;47.378;11.776;2023-04-10T05:55:31;-1.50;99.90
9977;DHT22;5029;47.378;11.776;2023-04-10T06:00:34;-1.30;99.90
9977;DHT22;5029;47.378;11.776;2023-04-10T06:05:39;-1.30;99.90
9977;DHT22;5029;47.378;11.776;2023-04-10T06:10:43;-1.10;99.90
9977;DHT22;5029;47.378;11.776;2023-04-10T06:15:47;-0.70;99.90
9977;DHT22;5029;47.378;11.776;2023-04-10T06:20:51;-0.40;99.90
9977;DHT22;5029;47.378;11.776;2023-04-10T06:25:55;0.10;99.90
9977;DHT22;5029;47.378;11.776;2023-04-10T06:30:58;0.20;99.90
9977;DHT22;5029;47.378;11.776;2023-04-10T06:36:06;-0.20;99.90
9977;DHT22;5029;47.378;11.776;2023-04-10T06:41:09;0.20;99.90
9977;DHT22;5029;47.378;11.776;2023-04-10T06:46:13;-0.60;99.90
9977;DHT22;5029;47.378;11.776;2023-04-10T06:51:18;-0.40;99.90
9977;DHT22;5029;47.378;11.776;2023-04-10T06:56:21;0.10;99.90
9977;DHT22;5029;47.378;11.776;2023-04-10T07:01:24;0.60;99.90
9977;DHT22;5029;47.378;11.776;2023-04-10T07:06:29;0.50;99.90
9977;DHT22;5029;47.378;11.776;2023-04-10T07:11:32;0.60;99.90
9977;DHT22;5029;47.378;11.776;2023-04-10T07:16:35;0.40;99.90
9977;DHT22;5029;47.378;11.776;2023-04-10T07:21:40;0.80;99.90
9977;DHT22;5029;47.378;11.776;2023-04-10T07:26:43;1.40;99.90
9977;DHT22;5029;47.378;11.776;2023-04-10T07:31:47;1.60;99.90
9977;DHT22;5029;47.378;11.776;2023-04-10T07:36:52;1.60;99.90
9977;DHT22;5029;47.378;11.776;2023-04-10T07:41:55;1.60;99.90
9977;DHT22;5029;47.378;11.776;2023-04-10T07:46:58;1.80;99.90
9977;DHT22;5029;47.378;11.776;2023-04-10T07:52:03;2.30;99.90
9977;DHT22;5029;47.378;11.776;2023-04-10T07:57:06;2.60;99.90
9977;DHT22;5029;47.378;11.776;2023-04-10T08:02:09;2.90;99.90
9977;DHT22;5029;47.378;11.776;2023-04-10T08:07:14;2.90;99.90
9977;DHT22;5029;47.378;11.776;2023-04-10T08:12:20;3.30;99.90
9977;DHT22;5029;47.378;11.776;2023-04-10T08:17:23;3.50;99.90
9977;DHT22;5029;47.378;11.776;2023-04-10T08:22:28;3.60;99.90
9977;DHT22;5029;47.378;11.776;2023-04-10T08:27:31;4.00;99.90
9977;DHT22;5029;47.378;11.776;2023-04-10T08:32:35;4.10;99.90
9977;DHT22;5029;47.378;11.776;2023-04-10T08:37:39;4.40;99.90
9977;DHT22;5029;47.378;11.776;2023-04-10T08:42:46;4.50;99.90
9977;DHT22;5029;47.378;11.776;2023-04-10T08:47:50;5.00;99.90
9977;DHT22;5029;47.378;11.776;2023-04-10T08:52:59;5.40;99.90
9977;DHT22;5029;47.378;11.776;2023-04-10T08:58:07;5.60;99.90
9977;DHT22;5029;47.378;11.776;2023-04-10T09:03:11;5.90;99.90
9977;DHT22;5029;47.378;11.776;2023-04-10T09:08:17;6.40;99.90
9977;DHT22;5029;47.378;11.776;2023-04-10T09:13:34;6.60;99.90
9977;DHT22;5029;47.378;11.776;2023-04-10T09:18:43;6.50;99.90
9977;DHT22;5029;47.378;11.776;2023-04-10T09:23:48;6.70;99.90
9977;DHT22;5029;47.378;11.776;2023-04-10T09:29:02;6.70;99.90
9977;DHT22;5029;47.378;11.776;2023-04-10T09:34:10;7.40;99.90
9977;DHT22;5029;47.378;11.776;2023-04-10T09:39:14;7.30;99.90
9977;DHT22;5029;47.378;11.776;2023-04-10T09:44:26;7.60;99.90
9977;DHT22;5029;47.378;11.776;2023-04-10T09:49:44;7.80;99.90
9977;DHT22;5029;47.378;11.776;2023-04-10T09:54:49;8.00;99.90
9977;DHT22;5029;47.378;11.776;2023-04-10T09:59:54;8.00;99.90
9977;DHT22;5029;47.378;11.776;2023-04-10T10:04:58;8.50;99.90
9977;DHT22;5029;47.378;11.776;2023-04-10T10:10:05;8.80;99.90
9977;DHT22;5029;47.378;11.776;2023-04-10T10:15:13;8.60;99.90
9977;DHT22;5029;47.378;11.776;2023-04-10T10:20:19;9.10;99.90
9977;DHT22;5029;47.378;11.776;2023-04-10T10:25:25;8.80;99.90
9977;DHT22;5029;47.378;11.776;2023-04-10T10:30:31;9.50;99.90
9977;DHT22;5029;47.378;11.776;2023-04-10T10:35:35;9.40;99.90
9977;DHT22;5029;47.378;11.776;2023-04-10T10:40:46;9.20;99.90
9977;DHT22;5029;47.378;11.776;2023-04-10T10:45:55;9.90;99.90
9977;DHT22;5029;47.378;11.776;2023-04-10T10:51:01;9.60;99.90
9977;DHT22;5029;47.378;11.776;2023-04-10T10:56:35;9.60;99.90
9977;DHT22;5029;47.378;11.776;2023-04-10T11:02:11;10.00;99.90
9977;DHT22;5029;47.378;11.776;2023-04-10T11:07:16;10.00;99.90
9977;DHT22;5029;47.378;11.776;2023-04-10T11:12:21;10.00;99.90
9977;DHT22;5029;47.378;11.776;2023-04-10T11:17:46;10.50;99.90
9977;DHT22;5029;47.378;11.776;2023-04-10T11:23:07;10.50;99.90
9977;DHT22;5029;47.378;11.776;2023-04-10T11:28:33;10.50;99.90
9977;DHT22;5029;47.378;11.776;2023-04-10T11:33:37;10.80;99.90
9977;DHT22;5029;47.378;11.776;2023-04-10T11:38:40;10.90;99.90
9977;DHT22;5029;47.378;11.776;2023-04-10T11:43:57;11.30;99.90
9977;DHT22;5029;47.378;11.776;2023-04-10T11:49:01;11.80;99.90
9977;DHT22;5029;47.378;11.776;2023-04-10T11:54:06;11.70;99.90
9977;DHT22;5029;47.378;11.776;2023-04-10T11:59:11;11.70;99.90
9977;DHT22;5029;47.378;11.776;2023-04-10T12:04:18;11.90;99.90
9977;DHT22;5029;47.378;11.776;2023-04-10T12:09:22;12.10;99.90
9977;DHT22;5029;47.378;11.776;2023-04-10T12:14:31;11.90;99.90
9977;DHT22;5029;47.378;11.776;2023-04-10T12:19:35;12.30;99.90
9977;DHT22;5029;47.378;11.776;2023-04-10T12:24:40;12.80;99.90
9977;DHT22;5029;47.378;11.776;2023-04-10T12:29:46;12.70;99.90
9977;DHT22;5029;47.378;11.776;2023-04-10T12:34:49;12.80;99.90
9977;DHT22;5029;47.378;11.776;2023-04-10T12:40:04;12.80;99.90
9977;DHT22;5029;47.378;11.776;2023-04-10T12:45:10;13.20;99.90
9977;DHT22;5029;47.378;11.776;2023-04-10T12:50:15;13.40;99.90
9977;DHT22;5029;47.378;11.776;2023-04-10T12:55:20;13.50;99.90
9977;DHT22;5029;47.378;11.776;2023-04-10T13:00:25;13.60;99.90
9977;DHT22;5029;47.378;11.776;2023-04-10T13:05:28;13.80;99.90
9977;DHT22;5029;47.378;11.776;2023-04-10T13:10:31;14.00;99.90
9977;DHT22;5029;47.378;11.776;2023-04-10T13:15:36;14.00;99.90
9977;DHT22;5029;47.378;11.776;2023-04-10T13:20:40;14.20;99.90
9977;DHT22;5029;47.378;11.776;2023-04-10T13:25:43;14.50;99.90
9977;DHT22;5029;47.378;11.776;2023-04-10T13:30:48;15.10;99.90
9977;DHT22;5029;47.378;11.776;2023-04-10T13:35:51;15.10;99.90
9977;DHT22;5029;47.378;11.776;2023-04-10T13:40:54;15.20;99.90
9977;DHT22;5029;47.378;11.776;2023-04-10T13:45:59;15.00;99.90
9977;DHT22;5029;47.378;11.776;2023-04-10T13:51:02;15.60;99.90
9977;DHT22;5029;47.378;11.776;2023-04-10T13:56:06;15.60;99.90
9977;DHT22;5029;47.378;11.776;2023-04-10T14:01:11;15.10;99.90
9977;DHT22;5029;47.378;11.776;2023-04-10T14:06:14;15.40;99.90
9977;DHT22;5029;47.378;11.776;2023-04-10T14:11:18;15.80;99.90
9977;DHT22;5029;47.378;11.776;2023-04-10T14:16:23;16.00;99.90
9977;DHT22;5029;47.378;11.776;2023-04-10T14:21:27;16.20;99.90
9977;DHT22;5029;47.378;11.776;2023-04-10T14:26:30;16.30;99.90
9977;DHT22;5029;47.378;11.776;2023-04-10T14:31:34;16.00;99.90
9977;DHT22;5029;47.378;11.776;2023-04-10T14:36:51;15.90;99.90
9977;DHT22;5029;47.378;11.776;2023-04-10T14:41:56;15.80;99.90
9977;DHT22;5029;47.378;11.776;2023-04-10T14:47:01;16.50;99.90
9977;DHT22;5029;47.378;11.776;2023-04-10T14:52:06;16.60;99.90
9977;DHT22;5029;47.378;11.776;2023-04-10T14:57:10;16.60;99.90
9977;DHT22;5029;47.378;11.776;2023-04-10T15:02:15;16.50;99.90
9977;DHT22;5029;47.378;11.776;2023-04-10T15:07:18;16.20;99.90
9977;DHT22;5029;47.378;11.776;2023-04-10T15:12:21;16.80;99.90
9977;DHT22;5029;47.378;11.776;2023-04-10T15:17:27;16.50;99.90
9977;DHT22;5029;47.378;11.776;2023-04-10T15:22:31;16.30;99.90
9977;DHT22;5029;47.378;11.776;2023-04-10T15:27:35;16.40;99.90
9977;DHT22;5029;47.378;11.776;2023-04-10T15:32:39;16.50;99.90
9977;DHT22;5029;47.378;11.776;2023-04-10T15:37:42;16.40;99.90
9977;DHT22;5029;47.378;11.776;2023-04-10T15:42:45;15.90;99.90
9977;DHT22;5029;47.378;11.776;2023-04-10T15:47:50;15.60;99.90
9977;DHT22;5029;47.378;11.776;2023-04-10T15:52:55;15.80;99.90
9977;DHT22;5029;47.378;11.776;2023-04-10T15:57:59;15.50;99.90
9977;DHT22;5029;47.378;11.776;2023-04-10T16:03:05;15.30;99.90
9977;DHT22;5029;47.378;11.776;2023-04-10T16:08:08;15.40;99.90
9977;DHT22;5029;47.378;11.776;2023-04-10T16:13:11;15.50;99.90
9977;DHT22;5029;47.378;11.776;2023-04-10T16:18:16;15.20;99.90
9977;DHT22;5029;47.378;11.776;2023-04-10T16:23:19;15.10;99.90
9977;DHT22;5029;47.378;11.776;2023-04-10T16:28:22;15.60;99.90
9977;DHT22;5029;47.378;11.776;2023-04-10T16:33:29;15.20;99.90
9977;DHT22;5029;47.378;11.776;2023-04-10T16:38:32;14.30;99.90
9977;DHT22;5029;47.378;11.776;2023-04-10T16:43:35;14.00;99.90
9977;DHT22;5029;47.378;11.776;2023-04-10T16:48:40;13.10;99.90
9977;DHT22;5029;47.378;11.776;2023-04-10T16:53:43;12.40;99.90
9977;DHT22;5029;47.378;11.776;2023-04-10T16:58:46;12.00;99.90
9977;DHT22;5029;47.378;11.776;2023-04-10T17:03:51;11.60;99.90
9977;DHT22;5029;47.378;11.776;2023-04-10T17:08:55;11.30;99.90
9977;DHT22;5029;47.378;11.776;2023-04-10T17:13:59;11.70;99.90
9977;DHT22;5029;47.378;11.776;2023-04-10T17:19:03;11.10;99.90
9977;DHT22;5029;47.378;11.776;2023-04-10T17:24:06;11.10;99.90
9977;DHT22;5029;47.378;11.776;2023-04-10T17:29:10;11.00;99.90
9977;DHT22;5029;47.378;11.776;2023-04-10T17:34:14;10.70;99.90
9977;DHT22;5029;47.378;11.776;2023-04-10T17:39:17;10.50;99.90
9977;DHT22;5029;47.378;11.776;2023-04-10T17:44:21;10.20;99.90
9977;DHT22;5029;47.378;11.776;2023-04-10T17:49:26;10.20;99.90
9977;DHT22;5029;47.378;11.776;2023-04-10T17:54:29;9.70;99.90
9977;DHT22;5029;47.378;11.776;2023-04-10T17:59:32;9.80;99.90
9977;DHT22;5029;47.378;11.776;2023-04-10T18:04:37;9.70;99.90
9977;DHT22;5029;47.378;11.776;2023-04-10T18:09:41;9.50;99.90
9977;DHT22;5029;47.378;11.776;2023-04-10T18:14:46;9.50;99.90
9977;DHT22;5029;47.378;11.776;2023-04-10T18:19:51;9.30;99.90
9977;DHT22;5029;47.378;11.776;2023-04-10T18:24:56;8.70;99.90
9977;DHT22;5029;47.378;11.776;2023-04-10T18:30:03;8.60;99.90
9977;DHT22;5029;47.378;11.776;2023-04-10T18:35:09;8.80;99.90
9977;DHT22;5029;47.378;11.776;2023-04-10T18:40:13;8.80;99.90
9977;DHT22;5029;47.378;11.776;2023-04-10T18:45:17;8.30;99.90
9977;DHT22;5029;47.378;11.776;2023-04-10T18:50:23;8.00;99.90
9977;DHT22;5029;47.378;11.776;2023-04-10T18:55:26;8.20;99.90
9977;DHT22;5029;47.378;11.776;2023-04-10T19:00:30;8.20;99.90
9977;DHT22;5029;47.378;11.776;2023-04-10T19:05:39;7.70;99.90
9977;DHT22;5029;47.378;11.776;2023-04-10T19:10:43;7.90;99.90
9977;DHT22;5029;47.378;11.776;2023-04-10T19:15:47;7.60;99.90
9977;DHT22;5029;47.378;11.776;2023-04-10T19:20:52;7.50;99.90
9977;DHT22;5029;47.378;11.776;2023-04-10T19:25:56;7.70;99.90
9977;DHT22;5029;47.378;11.776;2023-04-10T19:31:01;7.70;99.90
9977;DHT22;5029;47.378;11.776;2023-04-10T19:36:07;7.70;99.90
9977;DHT22;5029;47.378;11.776;2023-04-10T19:41:14;7.70;99.90
9977;DHT22;5029;47.378;11.776;2023-04-10T19:46:17;7.70;99.90
9977;DHT22;5029;47.378;11.776;2023-04-10T19:51:23;7.40;99.90
9977;DHT22;5029;47.378;11.776;2023-04-10T19:56:28;7.30;99.90
9977;DHT22;5029;47.378;11.776;2023-04-10T20:01:32;7.20;99.90
9977;DHT22;5029;47.378;11.776;2023-04-10T20:06:38;6.70;99.90
9977;DHT22;5029;47.378;11.776;2023-04-10T20:11:42;6.50;99.90
9977;DHT22;5029;47.378;11.776;2023-04-10T20:16:45;6.80;99.90
9977;DHT22;5029;47.378;11.776;2023-04-10T20:21:50;6.90;99.90
9977;DHT22;5029;47.378;11.776;2023-04-10T20:26:53;6.90;99.90
9977;DHT22;5029;47.378;11.776;2023-04-10T20:31:57;6.60;99.90
9977;DHT22;5029;47.378;11.776;2023-04-10T20:37:03;6.70;99.90
9977;DHT22;5029;47.378;11.776;2023-04-10T20:42:06;6.30;99.90
9977;DHT22;5029;47.378;11.776;2023-04-10T20:47:10;6.10;99.90
9977;DHT22;5029;47.378;11.776;2023-04-10T20:52:14;6.10;99.90
9977;DHT22;5029;47.378;11.776;2023-04-10T20:57:18;6.10;99.90
9977;DHT22;5029;47.378;11.776;2023-04-10T21:02:21;6.40;99.90
9977;DHT22;5029;47.378;11.776;2023-04-10T21:07:26;6.40;99.90
9977;DHT22;5029;47.378;11.776;2023-04-10T21:12:29;6.40;99.90
9977;DHT22;5029;47.378;11.776;2023-04-10T21:17:32;6.70;99.90
9977;DHT22;5029;47.378;11.776;2023-04-10T21:22:37;6.30;99.90
9977;DHT22;5029;47.378;11.776;2023-04-10T21:27:40;6.20;99.90
9977;DHT22;5029;47.378;11.776;2023-04-10T21:32:44;6.10;99.90
9977;DHT22;5029;47.378;11.776;2023-04-10T21:37:50;5.90;99.90
9977;DHT22;5029;47.378;11.776;2023-04-10T21:42:59;6.40;99.90
9977;DHT22;5029;47.378;11.776;2023-04-10T21:48:03;5.60;99.90
9977;DHT22;5029;47.378;11.776;2023-04-10T21:53:07;5.70;99.90
9977;DHT22;5029;47.378;11.776;2023-04-10T21:58:10;6.20;99.90
9977;DHT22;5029;47.378;11.776;2023-04-10T22:03:14;6.30;99.90
9977;DHT22;5029;47.378;11.776;2023-04-10T22:08:19;6.00;99.90
9977;DHT22;5029;47.378;11.776;2023-04-10T22:13:22;6.30;99.90
9977;DHT22;5029;47.378;11.776;2023-04-10T22:18:32;5.80;99.90
9977;DHT22;5029;47.378;11.776;2023-04-10T22:23:36;5.50;99.90
9977;DHT22;5029;47.378;11.776;2023-04-10T22:28:39;5.50;99.90
9977;DHT22;5029;47.378;11.776;2023-04-10T22:33:45;5.70;99.90
9977;DHT22;5029;47.378;11.776;2023-04-10T22:38:51;5.60;99.90
9977;DHT22;5029;47.378;11.776;2023-04-10T22:43:54;5.60;99.90
9977;DHT22;5029;47.378;11.776;2023-04-10T22:48:58;5.70;99.90
9977;DHT22;5029;47.378;11.776;2023-04-10T22:54:02;5.40;99.90
9977;DHT22;5029;47.378;11.776;2023-04-10T22:59:06;5.60;99.90
9977;DHT22;5029;47.378;11.776;2023-04-10T23:04:09;5.30;99.90
9977;DHT22;5029;47.378;11.776;2023-04-10T23:09:14;5.50;99.90
9977;DHT22;5029;47.378;11.776;2023-04-10T23:14:17;5.30;99.90
9977;DHT22;5029;47.378;11.776;2023-04-10T23:19:20;5.20;99.90
9977;DHT22;5029;47.378;11.776;2023-04-10T23:24:25;5.00;99.90
9977;DHT22;5029;47.378;11.776;2023-04-10T23:29:28;5.10;99.90
9977;DHT22;5029;47.378;11.776;2023-04-10T23:34:31;5.10;99.90
9977;DHT22;5029;47.378;11.776;2023-04-10T23:39:36;5.10;99.90
9977;DHT22;5029;47.378;11.776;2023-04-10T23:44:39;5.40;99.90
9977;DHT22;5029;47.378;11.776;2023-04-10T23:49:43;5.10;99.90
9977;DHT22;5029;47.378;11.776;2023-04-10T23:54:47;5.00;99.90
9977;DHT22;5029;47.378;11.776;2023-04-10T23:59:50;5.00;99.90
